Borden, Texas
Current Conditions -  °F | °C
As of 9:15 AM on Wednesday 22 Oct 2014 (Local Time) from K66R Reporting Station
Clear Clear  
Wind Chill: 69°   Ceiling: Unl
Heat Index: 69°   Visibility: 10mi
Dew Point: 63°   Wind: 5mph
Humidity: 82%   Direction: 80°E
Pressure: 30.1"   Gusts: NA
Location:  29.6229°N, 96.7031°W
Report Text: K66R 221415Z AUTO 08004KT 10SM CLR 21/17 A3010 RMK AO2 T02050174
Loading
Personal Weather Stations






























Interactive Weather Map
Tropical Storm Tracking
New forecast layout! Learn more

10-Day Weather Forecast

Advertisements
Track Severe Weather on mobile